createdAt,value
2022-10-18T00:00:25.650Z,0
2022-10-18T00:15:22.030Z,0
2022-10-18T00:30:18.235Z,0
2022-10-18T00:45:14.885Z,0
2022-10-18T00:49:41.270Z,0
2022-10-18T01:04:37.172Z,0
2022-10-18T01:19:33.541Z,0
2022-10-18T01:34:29.222Z,0
2022-10-18T01:46:36.942Z,0
2022-10-18T02:01:33.350Z,0
2022-10-18T02:16:29.546Z,0.01
2022-10-18T02:31:25.703Z,0
2022-10-18T03:01:18.132Z,0.01
2022-10-18T03:16:14.067Z,0
2022-10-18T03:29:20.879Z,0.02
2022-10-18T03:44:17.035Z,0.01
2022-10-18T03:48:36.771Z,0
2022-10-18T04:03:33.125Z,0
2022-10-18T04:10:41.283Z,0
2022-10-18T04:25:37.445Z,0
2022-10-18T04:40:33.659Z,0
2022-10-18T04:55:29.845Z,0
2022-10-18T05:10:26.290Z,0.01
2022-10-18T05:25:22.732Z,0.01
2022-10-18T05:40:18.870Z,0.02
2022-10-18T05:55:15.290Z,0.02
2022-10-18T06:10:11.145Z,0.02
2022-10-18T06:25:07.296Z,0.02
2022-10-18T06:40:03.650Z,0.03
2022-10-18T06:55:00.451Z,0.03
2022-10-18T07:09:56.932Z,0.07
2022-10-18T07:24:53.472Z,0.05
2022-10-18T07:39:49.909Z,0.09
2022-10-18T07:54:46.337Z,0.08
2022-10-18T08:09:42.599Z,0.1
2022-10-18T08:24:39.199Z,0.17
2022-10-18T08:39:35.670Z,0.15
2022-10-18T08:54:32.320Z,0.15
2022-10-18T09:09:28.914Z,0.2
2022-10-18T09:24:25.428Z,0.13
2022-10-18T09:39:21.192Z,0.11
2022-10-18T09:54:17.003Z,0.12
2022-10-18T10:09:13.665Z,0.29
2022-10-18T10:24:10.362Z,0.29
2022-10-18T10:39:06.752Z,0.2
2022-10-18T10:54:03.435Z,0.3
2022-10-18T11:08:59.671Z,0.15
2022-10-18T11:23:55.113Z,0.17
2022-10-18T11:38:51.678Z,0.16
2022-10-18T11:53:51.707Z,0.14
2022-10-18T12:23:40.097Z,0.08
2022-10-18T12:38:36.244Z,0.22
2022-10-18T12:53:32.502Z,0.08
2022-10-18T13:08:28.487Z,0.1
2022-10-18T13:23:24.739Z,0.27
2022-10-18T13:38:21.371Z,0.1
2022-10-18T13:53:17.047Z,0.15
2022-10-18T14:08:13.057Z,0.11
2022-10-18T14:23:09.420Z,0.08
2022-10-18T14:38:05.538Z,0.13
2022-10-18T14:53:02.206Z,0.1
2022-10-18T15:07:58.538Z,0.1
2022-10-18T15:22:54.909Z,0.1
2022-10-18T15:37:51.514Z,0.08
2022-10-18T15:52:47.579Z,0.06
2022-10-18T16:07:43.353Z,0.04
2022-10-18T16:22:39.837Z,0.02
2022-10-18T16:37:35.279Z,0.03
2022-10-18T16:52:31.730Z,0
2022-10-18T17:07:27.390Z,0.01
2022-10-18T17:22:22.974Z,0.01
2022-10-18T17:37:18.951Z,0.01
2022-10-18T17:52:14.541Z,0.01
2022-10-18T18:07:10.205Z,0
2022-10-18T18:22:06.181Z,0
2022-10-18T18:37:01.966Z,0.01
2022-10-18T18:51:58.046Z,0
2022-10-18T19:06:54.082Z,0
2022-10-18T19:21:52.031Z,0
2022-10-18T19:36:46.183Z,0
2022-10-18T19:51:42.290Z,0
2022-10-18T20:06:38.267Z,0
2022-10-18T20:21:34.592Z,0
2022-10-18T20:36:30.517Z,0
2022-10-18T20:51:26.853Z,0
2022-10-18T21:06:23.130Z,0
2022-10-18T21:21:19.423Z,0.01
2022-10-18T21:36:15.842Z,0
2022-10-18T21:51:12.123Z,0
2022-10-18T22:06:08.424Z,0.01
2022-10-18T22:21:04.792Z,0
2022-10-18T22:36:01.186Z,0
2022-10-18T22:50:57.460Z,0
2022-10-18T23:05:53.573Z,0
2022-10-18T23:20:49.746Z,0
2022-10-18T23:35:46.025Z,0
2022-10-18T23:50:42.601Z,0
